sensor_id;sensor_type;location;lat;lon;timestamp;P1;durP1;ratioP1;P2;durP2;ratioP2
71558;SDS011;59382;43.852;25.952;2023-04-03T00:03:59;1.88;;;0.98;;
71558;SDS011;59382;43.852;25.952;2023-04-03T00:06:25;2.13;;;1.20;;
71558;SDS011;59382;43.852;25.952;2023-04-03T00:08:51;1.65;;;1.27;;
71558;SDS011;59382;43.852;25.952;2023-04-03T00:11:17;1.10;;;0.90;;
71558;SDS011;59382;43.852;25.952;2023-04-03T00:13:43;2.38;;;0.85;;
71558;SDS011;59382;43.852;25.952;2023-04-03T00:16:09;4.90;;;1.20;;
71558;SDS011;59382;43.852;25.952;2023-04-03T00:18:36;4.18;;;1.13;;
71558;SDS011;59382;43.852;25.952;2023-04-03T00:21:02;2.72;;;1.27;;
71558;SDS011;59382;43.852;25.952;2023-04-03T00:23:28;1.05;;;0.95;;
71558;SDS011;59382;43.852;25.952;2023-04-03T00:25:54;1.17;;;1.02;;
71558;SDS011;59382;43.852;25.952;2023-04-03T00:28:20;1.10;;;1.00;;
71558;SDS011;59382;43.852;25.952;2023-04-03T00:30:46;1.25;;;1.00;;
71558;SDS011;59382;43.852;25.952;2023-04-03T00:33:13;2.67;;;0.98;;
71558;SDS011;59382;43.852;25.952;2023-04-03T00:35:39;1.33;;;1.23;;
71558;SDS011;59382;43.852;25.952;2023-04-03T00:38:05;1.52;;;1.05;;
71558;SDS011;59382;43.852;25.952;2023-04-03T00:40:35;1.15;;;1.05;;
71558;SDS011;59382;43.852;25.952;2023-04-03T00:43:05;1.30;;;1.20;;
71558;SDS011;59382;43.852;25.952;2023-04-03T00:45:38;1.75;;;1.08;;
71558;SDS011;59382;43.852;25.952;2023-04-03T00:48:08;1.42;;;1.25;;
71558;SDS011;59382;43.852;25.952;2023-04-03T00:50:39;1.23;;;1.08;;
71558;SDS011;59382;43.852;25.952;2023-04-03T00:53:06;2.67;;;1.20;;
71558;SDS011;59382;43.852;25.952;2023-04-03T00:55:36;1.00;;;0.90;;
71558;SDS011;59382;43.852;25.952;2023-04-03T00:58:04;1.40;;;1.30;;
71558;SDS011;59382;43.852;25.952;2023-04-03T01:00:32;1.23;;;1.13;;
71558;SDS011;59382;43.852;25.952;2023-04-03T01:02:59;1.33;;;1.17;;
71558;SDS011;59382;43.852;25.952;2023-04-03T01:05:24;1.20;;;1.10;;
71558;SDS011;59382;43.852;25.952;2023-04-03T01:07:50;0.88;;;0.88;;
71558;SDS011;59382;43.852;25.952;2023-04-03T01:10:17;1.25;;;1.08;;
71558;SDS011;59382;43.852;25.952;2023-04-03T01:12:46;0.88;;;0.88;;
71558;SDS011;59382;43.852;25.952;2023-04-03T01:15:15;1.58;;;0.85;;
71558;SDS011;59382;43.852;25.952;2023-04-03T01:17:52;2.55;;;1.10;;
71558;SDS011;59382;43.852;25.952;2023-04-03T01:25:36;5.82;;;1.30;;
71558;SDS011;59382;43.852;25.952;2023-04-03T01:28:06;1.50;;;1.30;;
71558;SDS011;59382;43.852;25.952;2023-04-03T01:30:34;2.05;;;1.20;;
71558;SDS011;59382;43.852;25.952;2023-04-03T01:35:35;0.70;;;0.70;;
71558;SDS011;59382;43.852;25.952;2023-04-03T01:38:00;1.50;;;1.10;;
71558;SDS011;59382;43.852;25.952;2023-04-03T01:40:26;2.30;;;1.15;;
71558;SDS011;59382;43.852;25.952;2023-04-03T01:42:51;1.40;;;1.30;;
71558;SDS011;59382;43.852;25.952;2023-04-03T01:45:17;1.30;;;1.20;;
71558;SDS011;59382;43.852;25.952;2023-04-03T01:47:42;1.42;;;1.30;;
71558;SDS011;59382;43.852;25.952;2023-04-03T01:50:08;3.47;;;1.83;;
71558;SDS011;59382;43.852;25.952;2023-04-03T01:52:34;1.92;;;1.70;;
71558;SDS011;59382;43.852;25.952;2023-04-03T01:54:59;2.47;;;1.50;;
71558;SDS011;59382;43.852;25.952;2023-04-03T01:57:25;2.33;;;2.13;;
71558;SDS011;59382;43.852;25.952;2023-04-03T01:59:50;1.50;;;1.33;;
71558;SDS011;59382;43.852;25.952;2023-04-03T02:02:16;1.90;;;1.55;;
71558;SDS011;59382;43.852;25.952;2023-04-03T02:04:45;2.17;;;1.17;;
71558;SDS011;59382;43.852;25.952;2023-04-03T02:07:11;1.02;;;0.93;;
71558;SDS011;59382;43.852;25.952;2023-04-03T02:09:36;1.23;;;1.13;;
71558;SDS011;59382;43.852;25.952;2023-04-03T02:12:02;1.40;;;1.17;;
71558;SDS011;59382;43.852;25.952;2023-04-03T02:14:27;1.33;;;1.23;;
71558;SDS011;59382;43.852;25.952;2023-04-03T02:16:53;1.58;;;1.20;;
71558;SDS011;59382;43.852;25.952;2023-04-03T02:19:19;1.25;;;1.15;;
71558;SDS011;59382;43.852;25.952;2023-04-03T02:21:45;1.55;;;1.20;;
71558;SDS011;59382;43.852;25.952;2023-04-03T02:24:10;1.25;;;1.15;;
71558;SDS011;59382;43.852;25.952;2023-04-03T02:26:36;1.63;;;1.20;;
71558;SDS011;59382;43.852;25.952;2023-04-03T02:29:01;2.42;;;1.30;;
71558;SDS011;59382;43.852;25.952;2023-04-03T02:31:27;1.95;;;1.33;;
71558;SDS011;59382;43.852;25.952;2023-04-03T02:33:53;2.05;;;1.50;;
71558;SDS011;59382;43.852;25.952;2023-04-03T02:36:18;1.50;;;1.40;;
71558;SDS011;59382;43.852;25.952;2023-04-03T02:38:44;1.60;;;1.30;;
71558;SDS011;59382;43.852;25.952;2023-04-03T02:41:11;4.50;;;2.20;;
71558;SDS011;59382;43.852;25.952;2023-04-03T02:43:38;2.20;;;1.45;;
71558;SDS011;59382;43.852;25.952;2023-04-03T02:46:04;1.98;;;1.30;;
71558;SDS011;59382;43.852;25.952;2023-04-03T02:48:30;1.60;;;1.33;;
71558;SDS011;59382;43.852;25.952;2023-04-03T02:50:56;2.42;;;1.60;;
71558;SDS011;59382;43.852;25.952;2023-04-03T02:53:21;1.67;;;1.58;;
71558;SDS011;59382;43.852;25.952;2023-04-03T02:55:47;2.10;;;1.63;;
71558;SDS011;59382;43.852;25.952;2023-04-03T02:58:13;4.38;;;1.80;;
71558;SDS011;59382;43.852;25.952;2023-04-03T03:00:39;2.65;;;2.08;;
71558;SDS011;59382;43.852;25.952;2023-04-03T03:03:04;2.60;;;2.22;;
71558;SDS011;59382;43.852;25.952;2023-04-03T03:05:31;2.53;;;2.20;;
71558;SDS011;59382;43.852;25.952;2023-04-03T03:07:57;2.40;;;1.85;;
71558;SDS011;59382;43.852;25.952;2023-04-03T03:10:23;3.13;;;1.90;;
71558;SDS011;59382;43.852;25.952;2023-04-03T03:12:48;4.53;;;2.08;;
71558;SDS011;59382;43.852;25.952;2023-04-03T03:15:14;5.72;;;2.30;;
71558;SDS011;59382;43.852;25.952;2023-04-03T03:17:41;2.83;;;2.15;;
71558;SDS011;59382;43.852;25.952;2023-04-03T03:20:07;3.38;;;2.40;;
71558;SDS011;59382;43.852;25.952;2023-04-03T03:22:33;4.90;;;2.72;;
71558;SDS011;59382;43.852;25.952;2023-04-03T03:24:59;3.08;;;2.65;;
71558;SDS011;59382;43.852;25.952;2023-04-03T03:27:25;2.50;;;2.03;;
71558;SDS011;59382;43.852;25.952;2023-04-03T03:29:51;3.13;;;2.15;;
71558;SDS011;59382;43.852;25.952;2023-04-03T03:32:17;3.00;;;2.25;;
71558;SDS011;59382;43.852;25.952;2023-04-03T03:34:43;3.13;;;2.35;;
71558;SDS011;59382;43.852;25.952;2023-04-03T03:37:08;7.93;;;2.70;;
71558;SDS011;59382;43.852;25.952;2023-04-03T03:39:34;9.60;;;2.95;;
71558;SDS011;59382;43.852;25.952;2023-04-03T03:42:00;4.82;;;2.42;;
71558;SDS011;59382;43.852;25.952;2023-04-03T03:44:25;2.60;;;1.60;;
71558;SDS011;59382;43.852;25.952;2023-04-03T03:46:51;3.92;;;1.65;;
71558;SDS011;59382;43.852;25.952;2023-04-03T03:49:16;1.42;;;1.27;;
71558;SDS011;59382;43.852;25.952;2023-04-03T03:51:42;1.88;;;1.40;;
71558;SDS011;59382;43.852;25.952;2023-04-03T03:54:07;2.30;;;1.50;;
71558;SDS011;59382;43.852;25.952;2023-04-03T03:56:33;1.80;;;1.52;;
71558;SDS011;59382;43.852;25.952;2023-04-03T03:58:59;1.77;;;1.58;;
71558;SDS011;59382;43.852;25.952;2023-04-03T04:01:24;6.35;;;2.40;;
71558;SDS011;59382;43.852;25.952;2023-04-03T04:03:50;11.05;;;3.13;;
71558;SDS011;59382;43.852;25.952;2023-04-03T04:06:16;7.43;;;2.10;;
71558;SDS011;59382;43.852;25.952;2023-04-03T04:08:42;3.67;;;2.15;;
71558;SDS011;59382;43.852;25.952;2023-04-03T04:11:07;3.03;;;1.90;;
71558;SDS011;59382;43.852;25.952;2023-04-03T04:13:34;1.88;;;1.70;;
71558;SDS011;59382;43.852;25.952;2023-04-03T04:16:00;2.58;;;2.00;;
71558;SDS011;59382;43.852;25.952;2023-04-03T04:18:26;3.55;;;2.17;;
71558;SDS011;59382;43.852;25.952;2023-04-03T04:20:51;3.50;;;2.65;;
71558;SDS011;59382;43.852;25.952;2023-04-03T04:23:17;2.90;;;2.50;;
71558;SDS011;59382;43.852;25.952;2023-04-03T04:25:47;4.07;;;2.40;;
71558;SDS011;59382;43.852;25.952;2023-04-03T04:28:14;3.78;;;2.90;;
71558;SDS011;59382;43.852;25.952;2023-04-03T04:30:40;4.05;;;2.75;;
71558;SDS011;59382;43.852;25.952;2023-04-03T04:33:06;4.68;;;2.90;;
71558;SDS011;59382;43.852;25.952;2023-04-03T04:35:32;3.15;;;2.85;;
71558;SDS011;59382;43.852;25.952;2023-04-03T04:37:58;8.23;;;3.17;;
71558;SDS011;59382;43.852;25.952;2023-04-03T04:40:25;5.38;;;2.90;;
71558;SDS011;59382;43.852;25.952;2023-04-03T04:42:51;3.47;;;2.75;;
71558;SDS011;59382;43.852;25.952;2023-04-03T04:45:17;6.50;;;2.47;;
71558;SDS011;59382;43.852;25.952;2023-04-03T04:47:43;4.47;;;2.97;;
71558;SDS011;59382;43.852;25.952;2023-04-03T04:50:09;10.05;;;3.05;;
71558;SDS011;59382;43.852;25.952;2023-04-03T04:52:35;8.80;;;3.78;;
71558;SDS011;59382;43.852;25.952;2023-04-03T04:55:03;9.07;;;3.63;;
71558;SDS011;59382;43.852;25.952;2023-04-03T04:57:30;6.32;;;2.95;;
71558;SDS011;59382;43.852;25.952;2023-04-03T04:59:56;8.30;;;3.20;;
71558;SDS011;59382;43.852;25.952;2023-04-03T05:02:22;8.27;;;2.95;;
71558;SDS011;59382;43.852;25.952;2023-04-03T05:04:47;5.90;;;3.15;;
71558;SDS011;59382;43.852;25.952;2023-04-03T05:07:15;5.40;;;2.75;;
71558;SDS011;59382;43.852;25.952;2023-04-03T05:09:41;5.78;;;2.42;;
71558;SDS011;59382;43.852;25.952;2023-04-03T05:12:07;3.33;;;2.60;;
71558;SDS011;59382;43.852;25.952;2023-04-03T05:14:33;5.88;;;3.45;;
71558;SDS011;59382;43.852;25.952;2023-04-03T05:16:58;3.95;;;2.88;;
71558;SDS011;59382;43.852;25.952;2023-04-03T05:19:24;3.17;;;2.10;;
71558;SDS011;59382;43.852;25.952;2023-04-03T05:21:49;5.18;;;3.10;;
71558;SDS011;59382;43.852;25.952;2023-04-03T05:24:15;5.93;;;3.72;;
71558;SDS011;59382;43.852;25.952;2023-04-03T05:26:41;4.65;;;3.60;;
71558;SDS011;59382;43.852;25.952;2023-04-03T05:29:08;7.50;;;4.20;;
71558;SDS011;59382;43.852;25.952;2023-04-03T05:31:34;10.60;;;3.90;;
71558;SDS011;59382;43.852;25.952;2023-04-03T05:34:00;10.63;;;4.32;;
71558;SDS011;59382;43.852;25.952;2023-04-03T05:36:26;16.00;;;5.45;;
71558;SDS011;59382;43.852;25.952;2023-04-03T05:38:52;6.97;;;4.50;;
71558;SDS011;59382;43.852;25.952;2023-04-03T05:41:18;14.48;;;4.57;;
71558;SDS011;59382;43.852;25.952;2023-04-03T05:43:45;13.35;;;4.50;;
71558;SDS011;59382;43.852;25.952;2023-04-03T05:46:12;12.07;;;4.63;;
71558;SDS011;59382;43.852;25.952;2023-04-03T05:48:39;15.25;;;5.38;;
71558;SDS011;59382;43.852;25.952;2023-04-03T05:51:05;11.60;;;4.38;;
71558;SDS011;59382;43.852;25.952;2023-04-03T05:53:33;13.15;;;5.25;;
71558;SDS011;59382;43.852;25.952;2023-04-03T05:56:02;14.23;;;5.35;;
71558;SDS011;59382;43.852;25.952;2023-04-03T05:58:28;10.85;;;5.28;;
71558;SDS011;59382;43.852;25.952;2023-04-03T06:00:54;10.23;;;4.32;;
71558;SDS011;59382;43.852;25.952;2023-04-03T06:03:20;8.38;;;4.50;;
71558;SDS011;59382;43.852;25.952;2023-04-03T06:05:45;20.42;;;7.00;;
71558;SDS011;59382;43.852;25.952;2023-04-03T06:08:11;12.57;;;4.32;;
71558;SDS011;59382;43.852;25.952;2023-04-03T06:10:37;21.30;;;4.47;;
71558;SDS011;59382;43.852;25.952;2023-04-03T06:13:03;13.65;;;6.30;;
71558;SDS011;59382;43.852;25.952;2023-04-03T06:15:29;9.30;;;4.35;;
71558;SDS011;59382;43.852;25.952;2023-04-03T06:17:54;15.57;;;5.47;;
71558;SDS011;59382;43.852;25.952;2023-04-03T06:20:20;7.38;;;5.32;;
71558;SDS011;59382;43.852;25.952;2023-04-03T06:22:46;15.80;;;4.78;;
71558;SDS011;59382;43.852;25.952;2023-04-03T06:25:11;12.15;;;4.63;;
71558;SDS011;59382;43.852;25.952;2023-04-03T06:27:37;10.02;;;4.32;;
71558;SDS011;59382;43.852;25.952;2023-04-03T06:30:04;25.73;;;6.60;;
71558;SDS011;59382;43.852;25.952;2023-04-03T06:32:34;17.08;;;5.50;;
71558;SDS011;59382;43.852;25.952;2023-04-03T06:35:01;16.88;;;6.15;;
71558;SDS011;59382;43.852;25.952;2023-04-03T06:37:26;13.82;;;4.75;;
71558;SDS011;59382;43.852;25.952;2023-04-03T06:39:54;18.95;;;4.80;;
71558;SDS011;59382;43.852;25.952;2023-04-03T06:42:22;13.43;;;4.35;;
71558;SDS011;59382;43.852;25.952;2023-04-03T06:44:49;13.13;;;3.45;;
71558;SDS011;59382;43.852;25.952;2023-04-03T06:47:15;9.57;;;3.28;;
71558;SDS011;59382;43.852;25.952;2023-04-03T06:49:42;3.58;;;2.22;;
71558;SDS011;59382;43.852;25.952;2023-04-03T06:52:08;3.55;;;2.53;;
71558;SDS011;59382;43.852;25.952;2023-04-03T06:54:34;3.92;;;2.15;;
71558;SDS011;59382;43.852;25.952;2023-04-03T06:57:01;6.45;;;2.65;;
71558;SDS011;59382;43.852;25.952;2023-04-03T06:59:27;5.10;;;2.83;;
71558;SDS011;59382;43.852;25.952;2023-04-03T07:01:53;6.38;;;2.30;;
71558;SDS011;59382;43.852;25.952;2023-04-03T07:04:18;8.98;;;2.65;;
71558;SDS011;59382;43.852;25.952;2023-04-03T07:06:47;13.00;;;2.72;;
71558;SDS011;59382;43.852;25.952;2023-04-03T07:09:19;9.30;;;2.80;;
71558;SDS011;59382;43.852;25.952;2023-04-03T07:11:45;19.17;;;2.83;;
71558;SDS011;59382;43.852;25.952;2023-04-03T07:14:11;7.65;;;2.38;;
71558;SDS011;59382;43.852;25.952;2023-04-03T07:16:37;5.53;;;2.05;;
71558;SDS011;59382;43.852;25.952;2023-04-03T07:19:20;7.07;;;1.98;;
71558;SDS011;59382;43.852;25.952;2023-04-03T07:21:55;13.27;;;2.50;;
71558;SDS011;59382;43.852;25.952;2023-04-03T07:24:21;35.30;;;17.85;;
71558;SDS011;59382;43.852;25.952;2023-04-03T07:26:50;12.18;;;6.65;;
71558;SDS011;59382;43.852;25.952;2023-04-03T07:29:17;5.25;;;2.38;;
71558;SDS011;59382;43.852;25.952;2023-04-03T07:31:46;10.57;;;2.40;;
71558;SDS011;59382;43.852;25.952;2023-04-03T07:34:12;4.68;;;3.05;;
71558;SDS011;59382;43.852;25.952;2023-04-03T07:36:41;7.10;;;2.30;;
71558;SDS011;59382;43.852;25.952;2023-04-03T07:39:09;7.88;;;2.17;;
71558;SDS011;59382;43.852;25.952;2023-04-03T07:41:34;11.20;;;2.35;;
71558;SDS011;59382;43.852;25.952;2023-04-03T07:44:00;7.97;;;2.65;;
71558;SDS011;59382;43.852;25.952;2023-04-03T07:46:27;10.27;;;2.30;;
71558;SDS011;59382;43.852;25.952;2023-04-03T07:48:53;4.57;;;2.83;;
71558;SDS011;59382;43.852;25.952;2023-04-03T07:51:19;6.63;;;2.40;;
71558;SDS011;59382;43.852;25.952;2023-04-03T07:53:46;5.15;;;2.40;;
71558;SDS011;59382;43.852;25.952;2023-04-03T07:56:11;2.20;;;2.00;;
71558;SDS011;59382;43.852;25.952;2023-04-03T07:58:37;3.10;;;2.55;;
71558;SDS011;59382;43.852;25.952;2023-04-03T08:01:03;35.25;;;4.45;;
71558;SDS011;59382;43.852;25.952;2023-04-03T08:03:29;19.23;;;2.97;;
71558;SDS011;59382;43.852;25.952;2023-04-03T08:06:00;14.60;;;3.70;;
71558;SDS011;59382;43.852;25.952;2023-04-03T08:08:28;19.50;;;3.88;;
71558;SDS011;59382;43.852;25.952;2023-04-03T08:10:55;6.25;;;3.80;;
71558;SDS011;59382;43.852;25.952;2023-04-03T08:13:23;6.05;;;3.40;;
71558;SDS011;59382;43.852;25.952;2023-04-03T08:15:49;8.93;;;3.67;;
71558;SDS011;59382;43.852;25.952;2023-04-03T08:18:16;5.72;;;2.75;;
71558;SDS011;59382;43.852;25.952;2023-04-03T08:20:43;9.27;;;3.53;;
71558;SDS011;59382;43.852;25.952;2023-04-03T08:23:10;5.10;;;3.03;;
71558;SDS011;59382;43.852;25.952;2023-04-03T08:25:40;3.95;;;3.33;;
71558;SDS011;59382;43.852;25.952;2023-04-03T08:28:07;6.05;;;3.00;;
71558;SDS011;59382;43.852;25.952;2023-04-03T08:30:33;4.43;;;2.80;;
71558;SDS011;59382;43.852;25.952;2023-04-03T08:33:03;3.67;;;2.40;;
71558;SDS011;59382;43.852;25.952;2023-04-03T08:35:29;4.40;;;3.58;;
71558;SDS011;59382;43.852;25.952;2023-04-03T08:37:55;4.65;;;3.50;;
71558;SDS011;59382;43.852;25.952;2023-04-03T08:40:21;6.30;;;2.58;;
71558;SDS011;59382;43.852;25.952;2023-04-03T08:45:17;5.38;;;3.38;;
71558;SDS011;59382;43.852;25.952;2023-04-03T08:47:54;3.75;;;2.70;;
71558;SDS011;59382;43.852;25.952;2023-04-03T08:50:47;4.78;;;2.55;;
71558;SDS011;59382;43.852;25.952;2023-04-03T08:53:33;3.53;;;2.55;;
71558;SDS011;59382;43.852;25.952;2023-04-03T08:56:02;5.03;;;3.25;;
71558;SDS011;59382;43.852;25.952;2023-04-03T08:58:35;7.28;;;3.33;;
71558;SDS011;59382;43.852;25.952;2023-04-03T09:01:18;2.88;;;2.67;;
71558;SDS011;59382;43.852;25.952;2023-04-03T09:04:09;5.68;;;2.40;;
71558;SDS011;59382;43.852;25.952;2023-04-03T09:06:39;5.37;;;2.77;;
71558;SDS011;59382;43.852;25.952;2023-04-03T09:12:25;6.28;;;4.65;;
71558;SDS011;59382;43.852;25.952;2023-04-03T09:17:57;2.88;;;2.15;;
71558;SDS011;59382;43.852;25.952;2023-04-03T09:23:20;4.68;;;2.40;;
71558;SDS011;59382;43.852;25.952;2023-04-03T09:25:47;3.58;;;2.63;;
71558;SDS011;59382;43.852;25.952;2023-04-03T09:28:16;2.25;;;2.05;;
71558;SDS011;59382;43.852;25.952;2023-04-03T09:30:41;3.28;;;2.70;;
71558;SDS011;59382;43.852;25.952;2023-04-03T09:33:07;2.60;;;2.40;;
71558;SDS011;59382;43.852;25.952;2023-04-03T09:35:37;2.83;;;2.40;;
71558;SDS011;59382;43.852;25.952;2023-04-03T09:40:38;9.57;;;2.50;;
71558;SDS011;59382;43.852;25.952;2023-04-03T09:43:19;4.65;;;2.42;;
71558;SDS011;59382;43.852;25.952;2023-04-03T09:45:50;8.30;;;2.80;;
71558;SDS011;59382;43.852;25.952;2023-04-03T09:48:18;8.55;;;3.42;;
71558;SDS011;59382;43.852;25.952;2023-04-03T09:55:58;5.38;;;2.60;;
71558;SDS011;59382;43.852;25.952;2023-04-03T09:58:31;2.22;;;2.03;;
71558;SDS011;59382;43.852;25.952;2023-04-03T10:01:02;13.85;;;3.17;;
71558;SDS011;59382;43.852;25.952;2023-04-03T10:03:35;5.68;;;3.08;;
71558;SDS011;59382;43.852;25.952;2023-04-03T10:06:02;8.85;;;3.00;;
71558;SDS011;59382;43.852;25.952;2023-04-03T10:08:32;5.78;;;2.72;;
71558;SDS011;59382;43.852;25.952;2023-04-03T10:11:15;5.80;;;2.20;;
71558;SDS011;59382;43.852;25.952;2023-04-03T10:13:52;4.97;;;2.58;;
71558;SDS011;59382;43.852;25.952;2023-04-03T10:16:35;3.08;;;2.38;;
71558;SDS011;59382;43.852;25.952;2023-04-03T10:35:07;3.92;;;2.38;;
71558;SDS011;59382;43.852;25.952;2023-04-03T10:37:57;2.78;;;2.20;;
71558;SDS011;59382;43.852;25.952;2023-04-03T10:43:19;2.40;;;2.20;;
71558;SDS011;59382;43.852;25.952;2023-04-03T10:54:05;2.47;;;2.15;;
71558;SDS011;59382;43.852;25.952;2023-04-03T10:56:37;5.90;;;1.95;;
71558;SDS011;59382;43.852;25.952;2023-04-03T10:59:13;2.08;;;1.83;;
71558;SDS011;59382;43.852;25.952;2023-04-03T11:01:52;5.13;;;1.77;;
71558;SDS011;59382;43.852;25.952;2023-04-03T11:04:21;2.67;;;2.08;;
71558;SDS011;59382;43.852;25.952;2023-04-03T11:06:53;2.17;;;1.80;;
71558;SDS011;59382;43.852;25.952;2023-04-03T11:09:33;8.77;;;2.37;;
71558;SDS011;59382;43.852;25.952;2023-04-03T11:14:51;3.05;;;2.20;;
71558;SDS011;59382;43.852;25.952;2023-04-03T11:22:27;2.10;;;1.70;;
71558;SDS011;59382;43.852;25.952;2023-04-03T11:27:40;2.67;;;1.48;;
71558;SDS011;59382;43.852;25.952;2023-04-03T11:30:19;4.03;;;2.22;;
71558;SDS011;59382;43.852;25.952;2023-04-03T11:32:52;4.15;;;1.85;;
71558;SDS011;59382;43.852;25.952;2023-04-03T11:35:35;5.38;;;2.45;;
71558;SDS011;59382;43.852;25.952;2023-04-03T11:38:02;3.17;;;1.83;;
71558;SDS011;59382;43.852;25.952;2023-04-03T11:40:34;4.22;;;1.45;;
71558;SDS011;59382;43.852;25.952;2023-04-03T11:50:46;2.83;;;1.65;;
71558;SDS011;59382;43.852;25.952;2023-04-03T11:55:46;3.22;;;2.08;;
71558;SDS011;59382;43.852;25.952;2023-04-03T12:00:48;2.95;;;1.70;;
71558;SDS011;59382;43.852;25.952;2023-04-03T12:21:16;1.45;;;1.35;;
71558;SDS011;59382;43.852;25.952;2023-04-03T12:26:38;1.95;;;1.85;;
71558;SDS011;59382;43.852;25.952;2023-04-03T12:29:17;3.42;;;1.55;;
71558;SDS011;59382;43.852;25.952;2023-04-03T12:31:47;1.60;;;1.50;;
71558;SDS011;59382;43.852;25.952;2023-04-03T12:39:48;2.03;;;1.90;;
71558;SDS011;59382;43.852;25.952;2023-04-03T12:47:48;4.78;;;2.42;;
71558;SDS011;59382;43.852;25.952;2023-04-03T12:52:51;2.92;;;1.92;;
71558;SDS011;59382;43.852;25.952;2023-04-03T12:55:21;3.17;;;2.10;;
71558;SDS011;59382;43.852;25.952;2023-04-03T12:57:47;4.93;;;1.90;;
71558;SDS011;59382;43.852;25.952;2023-04-03T13:02:45;2.88;;;1.92;;
71558;SDS011;59382;43.852;25.952;2023-04-03T13:05:14;2.17;;;1.60;;
71558;SDS011;59382;43.852;25.952;2023-04-03T13:07:43;3.38;;;1.98;;
71558;SDS011;59382;43.852;25.952;2023-04-03T13:10:14;4.68;;;1.67;;
71558;SDS011;59382;43.852;25.952;2023-04-03T13:12:45;3.47;;;1.70;;
71558;SDS011;59382;43.852;25.952;2023-04-03T13:15:16;2.33;;;1.77;;
71558;SDS011;59382;43.852;25.952;2023-04-03T13:17:44;2.05;;;1.80;;
71558;SDS011;59382;43.852;25.952;2023-04-03T13:20:17;4.70;;;1.90;;
71558;SDS011;59382;43.852;25.952;2023-04-03T13:23:28;4.00;;;2.50;;
71558;SDS011;59382;43.852;25.952;2023-04-03T13:25:40;3.13;;;2.35;;
71558;SDS011;59382;43.852;25.952;2023-04-03T13:28:12;4.53;;;2.30;;
71558;SDS011;59382;43.852;25.952;2023-04-03T13:30:53;4.25;;;2.05;;
71558;SDS011;59382;43.852;25.952;2023-04-03T13:33:23;3.30;;;2.38;;
71558;SDS011;59382;43.852;25.952;2023-04-03T13:36:35;3.95;;;1.88;;
71558;SDS011;59382;43.852;25.952;2023-04-03T13:38:45;6.18;;;2.13;;
71558;SDS011;59382;43.852;25.952;2023-04-03T13:41:30;5.45;;;2.30;;
71558;SDS011;59382;43.852;25.952;2023-04-03T13:52:44;6.05;;;2.88;;
71558;SDS011;59382;43.852;25.952;2023-04-03T13:55:18;5.63;;;2.60;;
71558;SDS011;59382;43.852;25.952;2023-04-03T13:58:01;5.75;;;3.40;;
71558;SDS011;59382;43.852;25.952;2023-04-03T14:03:25;3.88;;;3.00;;
71558;SDS011;59382;43.852;25.952;2023-04-03T14:05:54;4.72;;;3.17;;
71558;SDS011;59382;43.852;25.952;2023-04-03T14:08:20;4.75;;;3.10;;
71558;SDS011;59382;43.852;25.952;2023-04-03T14:10:46;2.78;;;2.53;;
71558;SDS011;59382;43.852;25.952;2023-04-03T14:13:16;8.40;;;3.00;;
71558;SDS011;59382;43.852;25.952;2023-04-03T14:15:44;3.97;;;2.95;;
71558;SDS011;59382;43.852;25.952;2023-04-03T14:18:12;4.25;;;3.40;;
71558;SDS011;59382;43.852;25.952;2023-04-03T14:20:39;5.75;;;3.83;;
71558;SDS011;59382;43.852;25.952;2023-04-03T14:23:05;6.60;;;3.60;;
71558;SDS011;59382;43.852;25.952;2023-04-03T14:25:31;4.72;;;3.45;;
71558;SDS011;59382;43.852;25.952;2023-04-03T14:27:57;6.88;;;3.90;;
71558;SDS011;59382;43.852;25.952;2023-04-03T14:30:26;8.57;;;4.45;;
71558;SDS011;59382;43.852;25.952;2023-04-03T14:32:54;7.22;;;5.25;;
71558;SDS011;59382;43.852;25.952;2023-04-03T14:35:20;18.85;;;12.18;;
71558;SDS011;59382;43.852;25.952;2023-04-03T14:37:47;7.55;;;4.00;;
71558;SDS011;59382;43.852;25.952;2023-04-03T14:40:18;5.40;;;3.50;;
71558;SDS011;59382;43.852;25.952;2023-04-03T14:42:46;11.48;;;6.05;;
71558;SDS011;59382;43.852;25.952;2023-04-03T14:45:17;6.05;;;4.03;;
71558;SDS011;59382;43.852;25.952;2023-04-03T14:47:44;9.45;;;3.40;;
71558;SDS011;59382;43.852;25.952;2023-04-03T14:50:14;4.40;;;4.00;;
71558;SDS011;59382;43.852;25.952;2023-04-03T14:52:42;12.10;;;3.72;;
71558;SDS011;59382;43.852;25.952;2023-04-03T14:55:09;6.75;;;4.38;;
71558;SDS011;59382;43.852;25.952;2023-04-03T14:57:39;5.30;;;3.67;;
71558;SDS011;59382;43.852;25.952;2023-04-03T15:00:07;6.72;;;4.40;;
71558;SDS011;59382;43.852;25.952;2023-04-03T15:02:34;6.47;;;4.53;;
71558;SDS011;59382;43.852;25.952;2023-04-03T15:05:02;4.25;;;3.83;;
71558;SDS011;59382;43.852;25.952;2023-04-03T15:07:31;4.80;;;3.97;;
71558;SDS011;59382;43.852;25.952;2023-04-03T15:10:02;4.78;;;4.00;;
71558;SDS011;59382;43.852;25.952;2023-04-03T15:12:48;5.82;;;3.72;;
71558;SDS011;59382;43.852;25.952;2023-04-03T15:15:18;7.25;;;4.28;;
71558;SDS011;59382;43.852;25.952;2023-04-03T15:17:45;5.18;;;3.50;;
71558;SDS011;59382;43.852;25.952;2023-04-03T15:20:23;6.60;;;4.00;;
71558;SDS011;59382;43.852;25.952;2023-04-03T15:22:51;5.30;;;4.15;;
71558;SDS011;59382;43.852;25.952;2023-04-03T15:25:17;6.45;;;4.80;;
71558;SDS011;59382;43.852;25.952;2023-04-03T15:27:43;7.68;;;4.30;;
71558;SDS011;59382;43.852;25.952;2023-04-03T15:30:16;5.32;;;4.10;;
71558;SDS011;59382;43.852;25.952;2023-04-03T15:32:43;5.07;;;3.90;;
71558;SDS011;59382;43.852;25.952;2023-04-03T15:35:09;8.32;;;4.47;;
71558;SDS011;59382;43.852;25.952;2023-04-03T15:37:35;5.68;;;4.65;;
71558;SDS011;59382;43.852;25.952;2023-04-03T15:40:01;5.65;;;4.32;;
71558;SDS011;59382;43.852;25.952;2023-04-03T15:42:27;4.38;;;3.90;;
71558;SDS011;59382;43.852;25.952;2023-04-03T15:44:53;5.57;;;4.57;;
71558;SDS011;59382;43.852;25.952;2023-04-03T15:47:18;6.25;;;4.55;;
71558;SDS011;59382;43.852;25.952;2023-04-03T15:49:44;7.45;;;4.97;;
71558;SDS011;59382;43.852;25.952;2023-04-03T15:52:10;5.90;;;4.50;;
71558;SDS011;59382;43.852;25.952;2023-04-03T15:54:35;13.48;;;7.97;;
71558;SDS011;59382;43.852;25.952;2023-04-03T15:57:01;9.23;;;5.63;;
71558;SDS011;59382;43.852;25.952;2023-04-03T15:59:26;8.15;;;4.57;;
71558;SDS011;59382;43.852;25.952;2023-04-03T16:01:54;7.93;;;5.60;;
71558;SDS011;59382;43.852;25.952;2023-04-03T16:04:19;11.05;;;6.78;;
71558;SDS011;59382;43.852;25.952;2023-04-03T16:06:45;7.65;;;5.47;;
71558;SDS011;59382;43.852;25.952;2023-04-03T16:09:11;10.65;;;6.50;;
71558;SDS011;59382;43.852;25.952;2023-04-03T16:11:37;9.25;;;6.18;;
71558;SDS011;59382;43.852;25.952;2023-04-03T16:14:05;11.13;;;6.47;;
71558;SDS011;59382;43.852;25.952;2023-04-03T16:16:31;7.10;;;5.43;;
71558;SDS011;59382;43.852;25.952;2023-04-03T16:18:57;8.23;;;5.50;;
71558;SDS011;59382;43.852;25.952;2023-04-03T16:21:23;11.93;;;6.32;;
71558;SDS011;59382;43.852;25.952;2023-04-03T16:23:49;11.65;;;6.63;;
71558;SDS011;59382;43.852;25.952;2023-04-03T16:26:15;14.77;;;7.53;;
71558;SDS011;59382;43.852;25.952;2023-04-03T16:28:42;10.90;;;5.82;;
71558;SDS011;59382;43.852;25.952;2023-04-03T16:31:08;10.40;;;5.55;;
71558;SDS011;59382;43.852;25.952;2023-04-03T16:33:34;14.27;;;6.22;;
71558;SDS011;59382;43.852;25.952;2023-04-03T16:36:00;17.33;;;6.35;;
71558;SDS011;59382;43.852;25.952;2023-04-03T16:38:26;14.05;;;6.40;;
71558;SDS011;59382;43.852;25.952;2023-04-03T16:40:51;11.07;;;5.88;;
71558;SDS011;59382;43.852;25.952;2023-04-03T16:43:22;10.73;;;5.40;;
71558;SDS011;59382;43.852;25.952;2023-04-03T16:45:47;13.57;;;7.50;;
71558;SDS011;59382;43.852;25.952;2023-04-03T16:48:13;16.55;;;6.20;;